createdAt,value
2018-12-14T00:00:54.174Z,0
2018-12-14T00:01:54.192Z,0
2018-12-14T00:03:08.858Z,0
2018-12-14T00:03:54.214Z,0
2018-12-14T00:04:54.223Z,0
2018-12-14T00:05:54.336Z,0
2018-12-14T00:06:54.247Z,0
2018-12-14T00:07:54.257Z,0
2018-12-14T00:08:54.288Z,0
2018-12-14T00:09:54.292Z,0
2018-12-14T00:10:54.302Z,0
2018-12-14T00:12:09.026Z,0
2018-12-14T00:12:54.333Z,0
2018-12-14T00:14:09.001Z,0
2018-12-14T00:14:54.363Z,0
2018-12-14T00:15:54.363Z,0
2018-12-14T00:16:54.382Z,0
2018-12-14T00:17:54.401Z,0
2018-12-14T00:19:09.069Z,0
2018-12-14T00:19:54.486Z,0
2018-12-14T00:20:54.432Z,0
2018-12-14T00:21:54.452Z,0
2018-12-14T00:22:54.457Z,0
2018-12-14T00:24:54.483Z,0
2018-12-14T00:25:54.495Z,0
2018-12-14T00:26:54.523Z,0
2018-12-14T00:27:54.523Z,0
2018-12-14T00:28:54.585Z,0
2018-12-14T00:29:54.604Z,0
2018-12-14T00:30:54.566Z,0
2018-12-14T00:31:54.582Z,0
2018-12-14T00:32:54.590Z,0
2018-12-14T00:33:54.610Z,0
2018-12-14T00:35:09.276Z,0
2018-12-14T00:35:54.631Z,0
2018-12-14T00:36:54.647Z,0
2018-12-14T00:37:54.669Z,0
2018-12-14T00:38:54.683Z,0
2018-12-14T00:39:54.729Z,0
2018-12-14T00:40:54.696Z,0
2018-12-14T00:41:59.178Z,0
2018-12-14T00:43:09.385Z,0
2018-12-14T00:44:09.396Z,0
2018-12-14T00:44:54.748Z,0
2018-12-14T00:46:54.773Z,0
2018-12-14T00:48:09.450Z,0
2018-12-14T00:48:54.803Z,0
2018-12-14T00:50:09.480Z,0
2018-12-14T00:51:54.850Z,0
2018-12-14T00:52:54.866Z,0
2018-12-14T00:54:09.532Z,0
2018-12-14T00:54:54.880Z,0
2018-12-14T00:55:54.913Z,0
2018-12-14T00:56:54.908Z,0
2018-12-14T00:57:54.923Z,0
2018-12-14T00:58:54.937Z,0
2018-12-14T00:59:54.954Z,0
2018-12-14T01:00:54.963Z,0
2018-12-14T01:01:54.974Z,0
2018-12-14T01:03:09.647Z,0
2018-12-14T01:03:55.053Z,0
2018-12-14T01:04:55.025Z,0
2018-12-14T01:05:55.035Z,0
2018-12-14T01:06:55.043Z,0
2018-12-14T01:08:09.722Z,0
2018-12-14T01:08:55.070Z,0
2018-12-14T01:09:55.141Z,0
2018-12-14T01:10:55.095Z,0
2018-12-14T01:12:00.733Z,0
2018-12-14T01:12:55.121Z,0
2018-12-14T01:13:55.134Z,0
2018-12-14T01:14:55.200Z,0
2018-12-14T01:16:09.820Z,0
2018-12-14T01:16:55.172Z,0
2018-12-14T01:17:55.189Z,0
2018-12-14T01:18:55.202Z,0
2018-12-14T01:19:55.213Z,0
2018-12-14T01:20:55.282Z,0
2018-12-14T01:22:09.897Z,0
2018-12-14T01:22:55.250Z,0
2018-12-14T01:23:55.263Z,0
2018-12-14T01:24:55.272Z,0
2018-12-14T01:25:55.302Z,0
2018-12-14T01:27:09.969Z,0
2018-12-14T01:27:55.325Z,0
2018-12-14T01:28:55.325Z,0
2018-12-14T01:29:55.354Z,0
2018-12-14T01:30:55.377Z,0
2018-12-14T01:31:55.366Z,0
2018-12-14T01:34:55.408Z,0
2018-12-14T01:35:55.472Z,0
2018-12-14T01:36:55.434Z,0
2018-12-14T01:38:10.109Z,0
2018-12-14T01:38:55.459Z,0
2018-12-14T01:39:55.474Z,0
2018-12-14T01:40:55.484Z,0
2018-12-14T01:41:55.497Z,0
2018-12-14T01:42:55.511Z,0
2018-12-14T01:43:55.530Z,0
2018-12-14T01:45:55.554Z,0
2018-12-14T01:47:10.272Z,0
2018-12-14T01:47:55.581Z,0
2018-12-14T01:48:55.659Z,0
2018-12-14T01:49:55.603Z,0
2018-12-14T01:50:55.620Z,0
2018-12-14T01:51:55.381Z,0
2018-12-14T01:52:55.692Z,0
2018-12-14T01:54:10.315Z,0
2018-12-14T01:54:55.673Z,0
2018-12-14T01:55:55.684Z,0
2018-12-14T01:56:55.791Z,0
2018-12-14T01:57:55.807Z,0
2018-12-14T01:58:55.718Z,0
2018-12-14T02:00:10.398Z,0
2018-12-14T02:00:55.743Z,0
2018-12-14T02:01:55.756Z,0
2018-12-14T02:03:10.433Z,0
2018-12-14T02:03:55.535Z,0
2018-12-14T02:04:55.803Z,0
2018-12-14T02:05:55.865Z,0
2018-12-14T02:06:55.824Z,0
2018-12-14T02:07:55.841Z,0
2018-12-14T02:08:55.855Z,0
2018-12-14T02:10:10.529Z,0
2018-12-14T02:10:55.878Z,0
2018-12-14T02:11:55.892Z,0
2018-12-14T02:12:56.001Z,0
2018-12-14T02:13:55.912Z,0
2018-12-14T02:14:55.930Z,0
2018-12-14T02:15:55.942Z,0
2018-12-14T02:16:55.967Z,0
2018-12-14T02:17:55.973Z,0
2018-12-14T02:18:55.978Z,0
2018-12-14T02:19:55.994Z,0
2018-12-14T02:20:56.004Z,0
2018-12-14T02:21:56.020Z,0
2018-12-14T02:22:56.037Z,0
2018-12-14T02:23:56.051Z,0
2018-12-14T02:25:10.733Z,0
2018-12-14T02:25:56.068Z,0
2018-12-14T02:26:56.084Z,0
2018-12-14T02:28:10.764Z,0
2018-12-14T02:28:56.111Z,0
2018-12-14T02:29:56.119Z,0
2018-12-14T02:30:56.156Z,0
2018-12-14T02:31:56.152Z,0
2018-12-14T02:32:56.169Z,0
2018-12-14T02:34:10.847Z,0
2018-12-14T02:34:56.189Z,0
2018-12-14T02:35:56.253Z,0
2018-12-14T02:36:56.219Z,0
2018-12-14T02:38:56.299Z,0
2018-12-14T02:40:10.923Z,0
2018-12-14T02:40:56.271Z,0
2018-12-14T02:41:56.280Z,0
2018-12-14T02:42:56.320Z,0
2018-12-14T02:43:56.323Z,0
2018-12-14T02:44:56.320Z,0
2018-12-14T02:46:10.995Z,0
2018-12-14T02:46:56.343Z,0
2018-12-14T02:47:56.374Z,0
2018-12-14T02:48:56.371Z,0
2018-12-14T02:49:56.402Z,0
2018-12-14T02:52:11.135Z,0
2018-12-14T02:52:56.427Z,0
2018-12-14T02:54:10.849Z,0
2018-12-14T02:54:56.448Z,0
2018-12-14T02:56:11.142Z,0
2018-12-14T02:57:11.131Z,0
2018-12-14T02:57:56.485Z,0
2018-12-14T02:58:56.496Z,0
2018-12-14T02:59:56.511Z,0
2018-12-14T03:00:56.534Z,0
2018-12-14T03:01:56.687Z,0
2018-12-14T03:02:56.555Z,0
2018-12-14T03:03:56.561Z,0
2018-12-14T03:05:56.590Z,0
2018-12-14T03:07:11.361Z,0
2018-12-14T03:08:11.276Z,0
2018-12-14T03:09:11.044Z,0
2018-12-14T03:11:11.312Z,0
2018-12-14T03:11:56.677Z,0
2018-12-14T03:13:11.344Z,0
2018-12-14T03:13:56.694Z,0
2018-12-14T03:14:56.718Z,0
2018-12-14T03:15:56.734Z,0
2018-12-14T03:16:56.737Z,0
2018-12-14T03:18:11.405Z,0
2018-12-14T03:18:56.759Z,0
2018-12-14T03:19:56.777Z,0
2018-12-14T03:20:56.784Z,0
2018-12-14T03:21:56.809Z,0
2018-12-14T03:23:56.874Z,0
2018-12-14T03:24:56.955Z,0
2018-12-14T03:25:56.847Z,0
2018-12-14T03:26:56.866Z,0
2018-12-14T03:27:56.872Z,0
2018-12-14T03:29:11.592Z,0
2018-12-14T03:29:56.902Z,0
2018-12-14T03:30:57.056Z,0
2018-12-14T03:31:56.959Z,0
2018-12-14T03:33:11.627Z,0
2018-12-14T03:34:56.960Z,0
2018-12-14T03:35:56.974Z,0
2018-12-14T03:37:11.649Z,0
2018-12-14T03:37:57.009Z,0
2018-12-14T03:39:11.676Z,0
2018-12-14T03:39:57.028Z,0
2018-12-14T03:40:57.049Z,0
2018-12-14T03:41:57.104Z,0
2018-12-14T03:42:57.069Z,0
2018-12-14T03:43:57.145Z,0
2018-12-14T03:45:11.805Z,0
2018-12-14T03:45:57.105Z,0
2018-12-14T03:46:57.132Z,0
2018-12-14T03:48:11.890Z,0
2018-12-14T03:49:11.811Z,0
2018-12-14T03:49:57.160Z,0
2018-12-14T03:50:57.172Z,0
2018-12-14T03:51:57.180Z,0
2018-12-14T03:52:57.291Z,0
2018-12-14T03:53:57.206Z,0
2018-12-14T03:54:57.216Z,0
2018-12-14T03:55:57.242Z,0
2018-12-14T03:56:57.260Z,0
2018-12-14T03:57:57.270Z,0
2018-12-14T03:58:57.278Z,0
2018-12-14T04:00:11.951Z,0
2018-12-14T04:00:57.307Z,0
2018-12-14T04:01:57.311Z,0
2018-12-14T04:02:57.326Z,0
2018-12-14T04:03:57.439Z,0
2018-12-14T04:04:57.341Z,0
2018-12-14T04:05:57.356Z,0
2018-12-14T04:06:57.385Z,0
2018-12-14T04:07:57.397Z,0
2018-12-14T04:08:57.400Z,0
2018-12-14T04:09:57.415Z,0
2018-12-14T04:10:57.433Z,0
2018-12-14T04:12:12.147Z,0
2018-12-14T04:12:57.451Z,0
2018-12-14T04:13:57.466Z,0
2018-12-14T04:14:57.523Z,0
2018-12-14T04:15:57.492Z,0
2018-12-14T04:16:57.504Z,0
2018-12-14T04:17:57.564Z,0
2018-12-14T04:18:57.526Z,0
2018-12-14T04:19:57.543Z,0
2018-12-14T04:20:57.551Z,0
2018-12-14T04:22:12.229Z,0
2018-12-14T04:22:57.575Z,0
2018-12-14T04:23:57.595Z,0
2018-12-14T04:24:59.312Z,0
2018-12-14T04:26:12.274Z,0
2018-12-14T04:26:57.632Z,0
2018-12-14T04:27:57.645Z,0
2018-12-14T04:28:57.453Z,0
2018-12-14T04:29:57.666Z,0
2018-12-14T04:32:12.404Z,0
2018-12-14T04:32:59.263Z,0
2018-12-14T04:33:57.770Z,0
2018-12-14T04:34:57.742Z,0
2018-12-14T04:35:57.748Z,0
2018-12-14T04:36:57.759Z,0
2018-12-14T04:37:57.772Z,0
2018-12-14T04:38:57.787Z,0
2018-12-14T04:40:57.808Z,0
2018-12-14T04:41:57.829Z,0
2018-12-14T04:42:57.839Z,0
2018-12-14T04:43:57.850Z,0
2018-12-14T04:44:57.866Z,0
2018-12-14T04:46:12.530Z,0
2018-12-14T04:46:57.884Z,0
2018-12-14T04:48:12.564Z,0
2018-12-14T04:48:57.913Z,0
2018-12-14T04:49:57.934Z,0
2018-12-14T04:50:57.971Z,0
2018-12-14T04:51:57.950Z,0
2018-12-14T04:52:57.961Z,0
2018-12-14T04:53:57.726Z,0
2018-12-14T04:54:57.981Z,0
2018-12-14T04:55:58.011Z,0
2018-12-14T04:56:57.897Z,0
2018-12-14T04:57:58.029Z,0
2018-12-14T04:59:12.698Z,0
2018-12-14T04:59:58.099Z,0
2018-12-14T05:01:12.722Z,0
2018-12-14T05:01:58.077Z,0
2018-12-14T05:02:58.170Z,0
2018-12-14T05:04:12.767Z,0
2018-12-14T05:04:58.165Z,0
2018-12-14T05:05:58.127Z,0
2018-12-14T05:06:58.148Z,0
2018-12-14T05:07:58.144Z,0
2018-12-14T05:08:58.161Z,0
2018-12-14T05:09:58.186Z,0
2018-12-14T05:10:58.207Z,0
2018-12-14T05:11:58.200Z,0
2018-12-14T05:13:03.323Z,0
2018-12-14T05:13:58.231Z,0
2018-12-14T05:14:58.245Z,0
2018-12-14T05:15:58.252Z,0
2018-12-14T05:16:58.266Z,0
2018-12-14T05:17:58.275Z,0
2018-12-14T05:18:58.429Z,0
2018-12-14T05:20:12.970Z,0
2018-12-14T05:20:58.311Z,0
2018-12-14T05:21:58.377Z,0
2018-12-14T05:22:58.336Z,0
2018-12-14T05:23:58.351Z,0
2018-12-14T05:24:58.365Z,0
2018-12-14T05:25:58.380Z,0
2018-12-14T05:26:58.387Z,0
2018-12-14T05:28:13.064Z,0
2018-12-14T05:28:58.412Z,0
2018-12-14T05:29:58.481Z,0
2018-12-14T05:30:58.437Z,0
2018-12-14T05:32:58.463Z,0
2018-12-14T05:35:13.152Z,0
2018-12-14T05:36:58.521Z,0
2018-12-14T05:37:58.526Z,0
2018-12-14T05:38:58.547Z,0
2018-12-14T05:39:58.553Z,0
2018-12-14T05:40:58.567Z,0
2018-12-14T05:41:58.593Z,0
2018-12-14T05:43:04.897Z,0
2018-12-14T05:44:13.265Z,0
2018-12-14T05:45:13.284Z,0
2018-12-14T05:45:58.633Z,0
2018-12-14T05:48:13.317Z,0
2018-12-14T05:48:58.668Z,0
2018-12-14T05:49:58.680Z,0
2018-12-14T05:52:00.001Z,0
2018-12-14T05:52:58.724Z,0
2018-12-14T05:53:58.736Z,0
2018-12-14T05:54:58.750Z,0
2018-12-14T05:55:58.763Z,0
2018-12-14T05:56:58.770Z,0
2018-12-14T05:57:58.560Z,0
2018-12-14T05:59:13.461Z,0
2018-12-14T06:00:13.478Z,0
2018-12-14T06:00:58.829Z,0
2018-12-14T06:01:58.837Z,0
2018-12-14T06:02:58.953Z,0
2018-12-14T06:03:58.860Z,0
2018-12-14T06:04:58.870Z,0
2018-12-14T06:05:58.883Z,0
2018-12-14T06:07:13.557Z,0
2018-12-14T06:07:58.912Z,0
2018-12-14T06:08:58.921Z,0
2018-12-14T06:09:58.935Z,0
2018-12-14T06:10:58.949Z,0
2018-12-14T06:11:58.959Z,0
2018-12-14T06:12:59.029Z,0
2018-12-14T06:14:13.650Z,0
2018-12-14T06:14:59.010Z,0
2018-12-14T06:15:59.008Z,0
2018-12-14T06:16:59.024Z,0
2018-12-14T06:17:59.040Z,0
2018-12-14T06:19:59.070Z,0
2018-12-14T06:21:13.740Z,0
2018-12-14T06:21:59.092Z,0
2018-12-14T06:23:13.774Z,0
2018-12-14T06:23:59.167Z,0
2018-12-14T06:24:59.134Z,0
2018-12-14T06:25:59.143Z,0
2018-12-14T06:26:59.155Z,0
2018-12-14T06:27:59.214Z,0
2018-12-14T06:28:59.175Z,0
2018-12-14T06:30:13.850Z,0
2018-12-14T06:31:13.867Z,0
2018-12-14T06:31:59.212Z,0
2018-12-14T06:33:13.887Z,0
2018-12-14T06:33:59.243Z,0
2018-12-14T06:34:59.260Z,0
2018-12-14T06:35:59.265Z,4
2018-12-14T06:36:59.277Z,4
2018-12-14T06:37:59.294Z,0
2018-12-14T06:39:13.967Z,0
2018-12-14T06:39:59.317Z,4
2018-12-14T06:41:00.646Z,4
2018-12-14T06:41:59.340Z,0
2018-12-14T06:42:59.408Z,4
2018-12-14T06:43:59.367Z,4
2018-12-14T06:44:59.377Z,4
2018-12-14T06:45:59.400Z,4
2018-12-14T06:46:59.455Z,4
2018-12-14T06:48:14.074Z,8
2018-12-14T06:50:14.097Z,12
2018-12-14T06:51:14.122Z,12
2018-12-14T06:53:00.618Z,16
2018-12-14T06:55:14.163Z,20
2018-12-14T06:56:59.577Z,24
2018-12-14T06:57:59.545Z,24
2018-12-14T06:59:59.572Z,32
2018-12-14T07:00:59.624Z,32
2018-12-14T07:02:14.253Z,36
2018-12-14T07:02:59.656Z,40
2018-12-14T07:03:59.622Z,44
2018-12-14T07:04:59.632Z,48
2018-12-14T07:05:59.650Z,52
2018-12-14T07:07:59.668Z,60
2018-12-14T07:08:59.687Z,64
2018-12-14T07:10:14.356Z,72
2018-12-14T07:10:59.706Z,76
2018-12-14T07:11:59.717Z,84
2018-12-14T07:12:59.785Z,88
2018-12-14T07:13:59.745Z,96
2018-12-14T07:14:59.755Z,100
2018-12-14T07:15:59.771Z,112
2018-12-14T07:16:59.783Z,120
2018-12-14T07:18:14.454Z,128
2018-12-14T07:18:59.820Z,136
2018-12-14T07:19:59.825Z,140
2018-12-14T07:20:59.827Z,144
2018-12-14T07:22:14.505Z,152
2018-12-14T07:23:14.566Z,164
2018-12-14T07:23:59.967Z,168
2018-12-14T07:24:59.982Z,172
2018-12-14T07:25:59.905Z,180
2018-12-14T07:26:59.917Z,192
2018-12-14T07:27:59.967Z,196
2018-12-14T07:29:14.598Z,208
2018-12-14T07:29:59.952Z,216
2018-12-14T07:30:59.956Z,224
2018-12-14T07:31:59.967Z,236
2018-12-14T07:32:59.984Z,240
2018-12-14T07:33:59.994Z,252
2018-12-14T07:35:00.011Z,260
2018-12-14T07:36:00.021Z,264
2018-12-14T07:38:00.047Z,284
2018-12-14T07:39:00.115Z,292
2018-12-14T07:40:00.071Z,304
2018-12-14T07:41:00.085Z,312
2018-12-14T07:42:14.756Z,324
2018-12-14T07:43:00.110Z,328
2018-12-14T07:44:00.120Z,340
2018-12-14T07:45:15.071Z,348
2018-12-14T07:46:00.151Z,356
2018-12-14T07:47:00.161Z,360
2018-12-14T07:48:00.170Z,368
2018-12-14T07:50:00.194Z,384
2018-12-14T07:51:00.264Z,388
2018-12-14T07:53:00.287Z,404
2018-12-14T07:54:00.246Z,412
2018-12-14T07:55:00.268Z,424
2018-12-14T07:56:00.283Z,440
2018-12-14T07:57:00.560Z,456
2018-12-14T07:58:14.955Z,476
2018-12-14T07:59:00.308Z,492
2018-12-14T08:00:14.988Z,512
2018-12-14T08:01:00.334Z,524
2018-12-14T08:02:00.345Z,540
2018-12-14T08:03:00.372Z,556
2018-12-14T08:04:00.367Z,564
2018-12-14T08:05:00.586Z,580
2018-12-14T08:06:00.397Z,588
2018-12-14T08:07:00.405Z,596
2018-12-14T08:08:00.428Z,608
2018-12-14T08:09:00.444Z,628
2018-12-14T08:10:15.157Z,652
2018-12-14T08:12:00.475Z,688
2018-12-14T08:13:00.532Z,704
2018-12-14T08:14:15.159Z,736
2018-12-14T08:16:00.588Z,764
2018-12-14T08:17:00.645Z,780
2018-12-14T08:18:00.550Z,800
2018-12-14T08:19:00.555Z,812
2018-12-14T08:20:00.580Z,824
2018-12-14T08:22:15.260Z,836
2018-12-14T08:23:00.610Z,852
2018-12-14T08:24:00.621Z,868
2018-12-14T08:25:00.635Z,884
2018-12-14T08:26:00.642Z,912
2018-12-14T08:27:00.660Z,936
2018-12-14T08:28:00.679Z,956
2018-12-14T08:29:00.691Z,968
2018-12-14T08:30:15.359Z,984
2018-12-14T08:31:00.707Z,996
2018-12-14T08:32:00.728Z,1016
2018-12-14T08:33:00.736Z,1036
2018-12-14T08:34:00.745Z,1060
2018-12-14T08:35:00.765Z,1084
2018-12-14T08:36:01.256Z,1104
2018-12-14T08:37:15.463Z,1132
2018-12-14T08:38:15.511Z,1152
2018-12-14T08:39:15.476Z,1168
2018-12-14T08:40:15.484Z,1184
2018-12-14T08:41:00.842Z,1196
2018-12-14T08:42:15.512Z,1212
2018-12-14T08:43:00.872Z,1220
2018-12-14T08:44:00.878Z,1228
2018-12-14T08:45:15.549Z,1252
2018-12-14T08:46:00.918Z,1264
2018-12-14T08:47:00.913Z,1276
2018-12-14T08:48:00.933Z,1296
2018-12-14T08:49:00.941Z,1316
2018-12-14T08:50:00.952Z,1324
2018-12-14T08:51:00.962Z,1340
2018-12-14T08:52:00.975Z,1356
2018-12-14T08:53:15.650Z,1372
2018-12-14T08:54:15.662Z,1380
2018-12-14T08:55:01.023Z,1388
2018-12-14T08:57:15.706Z,1408
2018-12-14T08:58:01.105Z,1416
2018-12-14T08:59:01.063Z,1436
2018-12-14T09:01:01.095Z,1464
2018-12-14T09:02:01.105Z,1484
2018-12-14T09:03:01.168Z,1504
2018-12-14T09:04:01.127Z,1532
2018-12-14T09:05:01.144Z,1556
2018-12-14T09:06:01.165Z,1580
2018-12-14T09:07:01.165Z,1604
2018-12-14T09:08:01.186Z,1628
2018-12-14T09:09:01.210Z,1636
2018-12-14T09:10:01.204Z,1652
2018-12-14T09:11:01.222Z,1672
2018-12-14T09:12:01.231Z,1688
2018-12-14T09:14:01.255Z,1716
2018-12-14T09:15:01.282Z,1724
2018-12-14T09:16:01.312Z,1740
2018-12-14T09:17:15.956Z,1764
2018-12-14T09:18:01.311Z,1780
2018-12-14T09:19:01.321Z,1808
2018-12-14T09:20:01.384Z,1852
2018-12-14T09:21:05.920Z,1880
2018-12-14T09:22:01.359Z,1904
2018-12-14T09:23:01.376Z,1920
2018-12-14T09:24:01.389Z,1936
2018-12-14T09:25:01.400Z,1936
2018-12-14T09:26:01.412Z,1948
2018-12-14T09:27:01.437Z,1972
2018-12-14T09:28:01.440Z,2000
2018-12-14T09:29:01.501Z,2020
2018-12-14T09:30:01.468Z,2036
2018-12-14T09:31:01.501Z,2040
2018-12-14T09:32:01.493Z,2040
2018-12-14T09:34:01.512Z,2052
2018-12-14T09:35:01.573Z,2064
2018-12-14T09:36:16.350Z,2052
2018-12-14T09:37:16.215Z,2044
2018-12-14T09:38:01.561Z,2044
2018-12-14T09:40:02.354Z,2036
2018-12-14T09:41:01.653Z,2032
2018-12-14T09:42:16.279Z,2036
2018-12-14T09:43:01.626Z,2040
2018-12-14T09:44:01.745Z,2028
2018-12-14T09:45:01.658Z,2016
2018-12-14T09:46:16.331Z,2012
2018-12-14T09:47:01.685Z,2020
2018-12-14T09:48:01.694Z,2052
2018-12-14T09:49:16.382Z,2112
2018-12-14T09:50:01.733Z,2164
2018-12-14T09:51:01.741Z,2232
2018-12-14T09:52:01.797Z,2284
2018-12-14T09:53:01.760Z,2320
2018-12-14T09:54:01.769Z,2336
2018-12-14T09:55:16.454Z,2340
2018-12-14T09:57:01.810Z,2324
2018-12-14T09:58:01.820Z,2316
2018-12-14T09:59:01.835Z,2316
2018-12-14T10:00:01.845Z,2316
2018-12-14T10:01:01.859Z,2328
2018-12-14T10:02:01.886Z,2336
2018-12-14T10:03:01.886Z,2348
2018-12-14T10:05:16.570Z,2380
2018-12-14T10:06:01.923Z,2392
2018-12-14T10:07:01.933Z,2420
2018-12-14T10:08:01.950Z,2456
2018-12-14T10:09:02.065Z,2488
2018-12-14T10:10:02.023Z,2512
2018-12-14T10:11:01.988Z,2536
2018-12-14T10:12:02.741Z,2544
2018-12-14T10:13:16.675Z,2548
2018-12-14T10:14:08.006Z,2548
2018-12-14T10:15:02.139Z,2564
2018-12-14T10:16:02.055Z,2588
2018-12-14T10:17:16.726Z,2624
2018-12-14T10:18:02.095Z,2644
2018-12-14T10:19:02.094Z,2680
2018-12-14T10:20:16.856Z,2732
2018-12-14T10:21:02.119Z,2756
2018-12-14T10:22:01.883Z,2772
2018-12-14T10:24:02.162Z,2764
2018-12-14T10:25:02.231Z,2760
2018-12-14T10:26:02.181Z,2744
2018-12-14T10:27:02.206Z,2724
2018-12-14T10:28:02.211Z,2708
2018-12-14T10:29:03.564Z,2704
2018-12-14T10:30:16.899Z,2696
2018-12-14T10:31:02.008Z,2692
2018-12-14T10:32:02.358Z,2708
2018-12-14T10:33:02.279Z,2724
2018-12-14T10:34:02.283Z,2756
2018-12-14T10:35:02.308Z,2784
2018-12-14T10:36:02.316Z,2804
2018-12-14T10:37:02.327Z,2812
2018-12-14T10:38:02.346Z,2812
2018-12-14T10:39:02.354Z,2800
2018-12-14T10:40:02.364Z,2784
2018-12-14T10:41:02.376Z,2780
2018-12-14T10:42:17.056Z,2784
2018-12-14T10:43:17.070Z,2808
2018-12-14T10:46:02.452Z,2880
2018-12-14T10:47:02.454Z,2904
2018-12-14T10:48:02.476Z,2924
2018-12-14T10:49:17.144Z,2960
2018-12-14T10:50:02.501Z,2980
2018-12-14T10:51:02.517Z,3012
2018-12-14T10:52:17.186Z,3032
2018-12-14T10:54:02.548Z,3020
2018-12-14T10:55:02.565Z,2996
2018-12-14T10:56:02.585Z,2972
2018-12-14T10:57:02.640Z,2956
2018-12-14T10:58:02.666Z,2948
2018-12-14T10:59:02.633Z,2944
2018-12-14T11:00:02.638Z,2948
2018-12-14T11:01:02.664Z,2956
2018-12-14T11:02:02.662Z,2956
2018-12-14T11:03:17.382Z,2956
2018-12-14T11:05:02.703Z,2936
2018-12-14T11:06:02.758Z,2924
2018-12-14T11:07:02.725Z,2916
2018-12-14T11:08:17.397Z,2904
2018-12-14T11:09:02.753Z,2904
2018-12-14T11:10:17.431Z,2908
2018-12-14T11:11:02.785Z,2920
2018-12-14T11:12:02.793Z,2928
2018-12-14T11:13:02.869Z,2928
2018-12-14T11:14:17.546Z,2908
2018-12-14T11:15:02.831Z,2892
2018-12-14T11:16:02.843Z,2872
2018-12-14T11:17:02.856Z,2856
2018-12-14T11:18:02.883Z,2852
2018-12-14T11:19:17.543Z,2856
2018-12-14T11:20:17.561Z,2868
2018-12-14T11:21:02.914Z,2880
2018-12-14T11:22:02.927Z,2904
2018-12-14T11:23:02.934Z,2944
2018-12-14T11:24:17.609Z,2988
2018-12-14T11:25:02.963Z,3012
2018-12-14T11:26:02.980Z,3044
2018-12-14T11:27:02.989Z,3056
2018-12-14T11:29:03.022Z,3048
2018-12-14T11:30:03.044Z,3040
2018-12-14T11:31:03.042Z,3040
2018-12-14T11:32:17.719Z,3048
2018-12-14T11:33:17.802Z,3060
2018-12-14T11:34:03.137Z,3068
2018-12-14T11:35:03.095Z,3076
2018-12-14T11:37:03.131Z,3084
2018-12-14T11:38:03.147Z,3076
2018-12-14T11:39:04.264Z,3068
2018-12-14T11:40:17.827Z,3056
2018-12-14T11:41:02.928Z,3048
2018-12-14T11:42:03.191Z,3032
2018-12-14T11:43:02.958Z,3016
2018-12-14T11:44:20.749Z,2980
2018-12-14T11:45:03.235Z,2948
2018-12-14T11:46:03.250Z,2900
2018-12-14T11:47:03.256Z,2860
2018-12-14T11:48:03.282Z,2824
2018-12-14T11:49:17.948Z,2780
2018-12-14T11:50:03.316Z,2748
2018-12-14T11:51:03.311Z,2700
2018-12-14T11:52:18.053Z,2644
2018-12-14T11:53:03.341Z,2608
2018-12-14T11:54:03.355Z,2568
2018-12-14T11:55:18.034Z,2528
2018-12-14T11:56:04.757Z,2512
2018-12-14T11:57:18.064Z,2492
2018-12-14T11:58:03.418Z,2488
2018-12-14T11:59:03.426Z,2476
2018-12-14T12:00:03.577Z,2464
2018-12-14T12:01:03.451Z,2452
2018-12-14T12:02:03.519Z,2432
2018-12-14T12:03:03.589Z,2416
2018-12-14T12:04:03.490Z,2404
2018-12-14T12:06:18.230Z,2380
2018-12-14T12:07:03.541Z,2372
2018-12-14T12:08:03.545Z,2360
2018-12-14T12:09:03.559Z,2340
2018-12-14T12:10:03.599Z,2320
2018-12-14T12:11:03.594Z,2300
2018-12-14T12:12:03.600Z,2292
2018-12-14T12:13:03.668Z,2280
2018-12-14T12:14:03.675Z,2284
2018-12-14T12:15:03.646Z,2280
2018-12-14T12:16:18.320Z,2264
2018-12-14T12:17:03.677Z,2252
2018-12-14T12:18:03.682Z,2224
2018-12-14T12:19:03.690Z,2188
2018-12-14T12:20:18.368Z,2136
2018-12-14T12:21:03.722Z,2108
2018-12-14T12:22:03.740Z,2072
2018-12-14T12:23:03.749Z,2044
2018-12-14T12:25:03.776Z,2004
2018-12-14T12:26:03.789Z,1980
2018-12-14T12:27:18.525Z,1940
2018-12-14T12:28:03.814Z,1908
2018-12-14T12:29:03.847Z,1860
2018-12-14T12:30:03.844Z,1808
2018-12-14T12:31:18.558Z,1748
2018-12-14T12:32:03.869Z,1712
2018-12-14T12:33:03.918Z,1680
2018-12-14T12:34:03.904Z,1664
2018-12-14T12:35:03.910Z,1656
2018-12-14T12:36:03.926Z,1652
2018-12-14T12:37:18.596Z,1640
2018-12-14T12:38:03.949Z,1628
2018-12-14T12:40:04.049Z,1556
2018-12-14T12:41:04.002Z,1536
2018-12-14T12:43:18.679Z,1480
2018-12-14T12:44:04.034Z,1460
2018-12-14T12:45:04.066Z,1436
2018-12-14T12:46:04.059Z,1424
2018-12-14T12:47:04.067Z,1400
2018-12-14T12:48:04.085Z,1372
2018-12-14T12:49:04.147Z,1364
2018-12-14T12:50:04.157Z,1360
2018-12-14T12:51:10.114Z,1316
2018-12-14T12:52:04.135Z,1292
2018-12-14T12:53:18.808Z,1280
2018-12-14T12:54:03.911Z,1296
2018-12-14T12:55:04.174Z,1340
2018-12-14T12:56:04.195Z,1344
2018-12-14T12:57:04.257Z,1336
2018-12-14T12:58:04.213Z,1328
2018-12-14T12:59:18.891Z,1320
2018-12-14T13:01:04.255Z,1300
2018-12-14T13:02:04.265Z,1284
2018-12-14T13:03:04.281Z,1256
2018-12-14T13:04:04.295Z,1228
2018-12-14T13:05:18.971Z,1196
2018-12-14T13:06:04.328Z,1180
2018-12-14T13:07:19.043Z,1160
2018-12-14T13:08:19.014Z,1148
2018-12-14T13:09:04.426Z,1140
2018-12-14T13:10:04.370Z,1120
2018-12-14T13:11:04.384Z,1096
2018-12-14T13:12:04.419Z,1068
2018-12-14T13:13:04.517Z,1044
2018-12-14T13:14:04.434Z,1020
2018-12-14T13:15:19.109Z,988
2018-12-14T13:16:04.461Z,972
2018-12-14T13:17:04.472Z,940
2018-12-14T13:18:05.632Z,912
2018-12-14T13:19:04.496Z,892
2018-12-14T13:20:04.509Z,872
2018-12-14T13:21:04.516Z,856
2018-12-14T13:22:04.538Z,844
2018-12-14T13:23:04.605Z,824
2018-12-14T13:24:19.275Z,800
2018-12-14T13:25:04.593Z,776
2018-12-14T13:26:04.586Z,756
2018-12-14T13:27:22.709Z,728
2018-12-14T13:28:04.609Z,716
2018-12-14T13:29:04.647Z,704
2018-12-14T13:30:19.308Z,688
2018-12-14T13:31:19.339Z,676
2018-12-14T13:32:04.662Z,668
2018-12-14T13:33:04.682Z,652
2018-12-14T13:34:04.689Z,640
2018-12-14T13:35:04.754Z,620
2018-12-14T13:36:04.717Z,608
2018-12-14T13:37:04.729Z,600
2018-12-14T13:38:04.758Z,584
2018-12-14T13:39:04.508Z,576
2018-12-14T13:40:04.812Z,568
2018-12-14T13:41:04.871Z,560
2018-12-14T13:42:04.888Z,552
2018-12-14T13:43:04.863Z,544
2018-12-14T13:44:04.832Z,536
2018-12-14T13:45:19.538Z,524
2018-12-14T13:46:04.995Z,516
2018-12-14T13:47:04.938Z,508
2018-12-14T13:48:04.941Z,496
2018-12-14T13:49:10.075Z,480
2018-12-14T13:50:04.945Z,472
2018-12-14T13:51:04.911Z,460
2018-12-14T13:52:04.979Z,452
2018-12-14T13:53:04.939Z,444
2018-12-14T13:54:19.614Z,428
2018-12-14T13:55:04.973Z,424
2018-12-14T13:56:19.639Z,408
2018-12-14T13:57:04.996Z,404
2018-12-14T13:58:19.669Z,392
2018-12-14T13:59:05.020Z,384
2018-12-14T14:00:05.037Z,376
2018-12-14T14:01:05.062Z,372
2018-12-14T14:02:19.717Z,360
2018-12-14T14:03:05.074Z,356
2018-12-14T14:04:05.085Z,344
2018-12-14T14:05:05.092Z,336
2018-12-14T14:06:05.127Z,328
2018-12-14T14:07:05.126Z,316
2018-12-14T14:08:05.139Z,308
2018-12-14T14:09:05.153Z,300
2018-12-14T14:10:05.242Z,292
2018-12-14T14:11:05.237Z,276
2018-12-14T14:12:05.191Z,264
2018-12-14T14:13:19.858Z,248
2018-12-14T14:14:05.238Z,240
2018-12-14T14:15:05.231Z,228
2018-12-14T14:16:05.234Z,224
2018-12-14T14:18:19.923Z,200
2018-12-14T14:20:05.341Z,188
2018-12-14T14:21:05.298Z,180
2018-12-14T14:22:05.321Z,168
2018-12-14T14:23:05.326Z,160
2018-12-14T14:24:05.340Z,144
2018-12-14T14:25:05.352Z,136
2018-12-14T14:26:05.369Z,128
2018-12-14T14:27:05.377Z,128
2018-12-14T14:28:20.053Z,128
2018-12-14T14:29:05.410Z,120
2018-12-14T14:30:20.083Z,108
2018-12-14T14:31:05.190Z,100
2018-12-14T14:32:05.498Z,92
2018-12-14T14:33:05.454Z,88
2018-12-14T14:34:20.134Z,92
2018-12-14T14:36:05.493Z,88
2018-12-14T14:37:05.556Z,88
2018-12-14T14:38:05.526Z,88
2018-12-14T14:39:05.633Z,84
2018-12-14T14:40:20.311Z,84
2018-12-14T14:41:20.225Z,80
2018-12-14T14:42:20.236Z,76
2018-12-14T14:43:05.583Z,72
2018-12-14T14:44:05.652Z,60
2018-12-14T14:45:07.093Z,52
2018-12-14T14:46:20.284Z,48
2018-12-14T14:47:20.295Z,44
2018-12-14T14:48:05.653Z,44
2018-12-14T14:49:05.661Z,44
2018-12-14T14:50:20.336Z,40
2018-12-14T14:52:05.699Z,40
2018-12-14T14:53:05.712Z,36
2018-12-14T14:54:05.735Z,32
2018-12-14T14:55:05.739Z,28
2018-12-14T14:56:05.750Z,24
2018-12-14T14:57:05.761Z,24
2018-12-14T14:58:05.828Z,24
2018-12-14T14:59:05.791Z,20
2018-12-14T15:00:20.513Z,16
2018-12-14T15:01:05.814Z,16